CYQT

Thunder Bay Airport

Thunder Bay, , Canada
METAR CYQT 192200Z 05004KT 15SM SCT050 OVC230 22/19 A2991 RMK SC3CS5 HZ SLP133 DENSITY ALT 1700FT
Observed Flight Rules
Aug-19 @ 22:00 UTC (an hour ago) Visual Flight Rules
Wind Visibility Clouds
50° at 4 knots 15 miles
  • Scattered at 5,000' AGL
  • Overcast at 23,000' AGL
Temperatures Readings
Current 22°C / 72°F
Dewpoint 19°C / 66°F
Humidity 83%
Altimeter 29.91" Hg
Pressure 1013.3 hPa
Elevation 199
METAR CYQT 192200Z 05004KT 15SM SCT050 OVC230 22/19 A2991 RMK SC3CS5 HZ SLP133 DENSITY ALT 1700FT
Observed Flight Rules
Aug-19 @ 22:00 UTC
(an hour ago)
VFR
Wind Visibility
50° at 4 knots 15 miles
Clouds
  • Scattered at 5,000' AGL
  • Overcast at 23,000' AGL
Temperature Dewpoint
22°C / 72°F 19°C / 66°F
Humidity Altimeter Pressure
83% 29.91" Hg 1013.3 hPa